Etusivu
METAR-TAF:

METAR-TAF

Lentoasemat :

Keetmanshoop, Namibia

Leveyspiiri: 26-32S, Pituuspiiri: 018-07E, korkeus merenpinnasta: 1067 m

Tämänhetkinen sää

Tämä raportti tehtiin 34 minuuttia sitten, kello 10.00 UTC
Tuuli 9 kn pohjoisesta/koillisesta
Lämpötila 29°C
Kosteus 13%
Ilmanpaine 1020 hPa
Näkyvyys 10 km tai enemmän
ei pilviä alle 1500 m:ssä eikä cumulonimbus-pilviä

METAR: FYKT 261000Z 03009KT CAVOK 29/M02 Q1020

Aika: 11:34 (10:34 UTC)

Sääennuste

Tämä raportti tehtiin 6 tuntia ja 34 minuuttia sitten, kello 04.00 UTC
Ennuste voimassa 26. päivästä klo 06 UTC - 27. päivään klo 06 UTC
Tuuli kn pohjoisesta
Näkyvyys 10 km tai enemmän
ei pilviä alle 1500 m:ssä eikä cumulonimbus-pilviä
Tulossa
26. päivästä klo 09 UTC - 26. päivään klo 11 UTC
Tuuli 8 kn koillisesta

TAF: FYKT 260400Z 2606/2706 00000KT CAVOK BECMG 2609/2611 04008KT

Säähavainnot ja -ennusteet yli 4000 lentoasemalta (METAR- ja TAF-raportit).

Käytössä olevat sääasemat on merkitty karttaan keltaisilla ja punaisilla pisteillä.

Aseta hiiri pisteen päälle nähdäksesi sääaseman nimen.

Klikkaa sitten nähdäksesi säähavainnot ja -ennusteet.

Kartan vaihtaminen: klikkaa mustalla rastilla varustettuja vihreitä pisteitä, niin voit zoomata sisään; viivalla varustettua vihreää pistettä, niin voit zoomata ulos tai vihreitä nuolia, niin pääset viereisille kartoille.


METAR-TAF: